sensor_id;sensor_type;location;lat;lon;timestamp;pressure;altitude;pressure_sealevel;temperature;humidity
40612;BME280;26317;44.894;20.286;2023-12-20T00:01:30;100819.72;;;5.20;93.09
40612;BME280;26317;44.894;20.286;2023-12-20T00:04:16;100813.81;;;5.18;92.81
40612;BME280;26317;44.894;20.286;2023-12-20T00:06:59;100823.66;;;5.17;93.25
40612;BME280;26317;44.894;20.286;2023-12-20T00:09:45;100814.25;;;5.15;93.34
40612;BME280;26317;44.894;20.286;2023-12-20T00:12:41;100805.72;;;5.13;93.18
40612;BME280;26317;44.894;20.286;2023-12-20T00:15:28;100798.78;;;5.12;93.02
40612;BME280;26317;44.894;20.286;2023-12-20T00:18:08;100788.34;;;5.10;92.74
40612;BME280;26317;44.894;20.286;2023-12-20T00:20:48;100784.53;;;5.06;92.51
40612;BME280;26317;44.894;20.286;2023-12-20T00:23:28;100761.53;;;4.88;92.62
40612;BME280;26317;44.894;20.286;2023-12-20T00:26:04;100769.59;;;4.93;92.33
40612;BME280;26317;44.894;20.286;2023-12-20T00:28:54;100774.25;;;4.98;92.46
40612;BME280;26317;44.894;20.286;2023-12-20T00:31:34;100766.13;;;4.93;92.60
40612;BME280;26317;44.894;20.286;2023-12-20T00:34:12;100765.56;;;4.91;92.89
40612;BME280;26317;44.894;20.286;2023-12-20T00:36:46;100773.53;;;4.91;93.44
40612;BME280;26317;44.894;20.286;2023-12-20T00:39:31;100773.41;;;4.86;93.78
40612;BME280;26317;44.894;20.286;2023-12-20T00:42:22;100759.53;;;4.84;94.10
40612;BME280;26317;44.894;20.286;2023-12-20T00:45:02;100755.72;;;4.80;94.23
40612;BME280;26317;44.894;20.286;2023-12-20T00:47:44;100752.00;;;4.81;94.57
40612;BME280;26317;44.894;20.286;2023-12-20T00:50:24;100755.25;;;4.83;94.39
40612;BME280;26317;44.894;20.286;2023-12-20T00:53:05;100749.81;;;4.78;94.53
40612;BME280;26317;44.894;20.286;2023-12-20T00:55:48;100745.78;;;4.75;94.82
40612;BME280;26317;44.894;20.286;2023-12-20T00:58:27;100746.81;;;4.74;94.94
40612;BME280;26317;44.894;20.286;2023-12-20T01:01:05;100743.53;;;4.72;95.02
40612;BME280;26317;44.894;20.286;2023-12-20T01:03:41;100734.78;;;4.72;94.88
40612;BME280;26317;44.894;20.286;2023-12-20T01:06:49;100736.63;;;4.71;94.55
40612;BME280;26317;44.894;20.286;2023-12-20T01:09:25;100736.84;;;4.70;94.53
40612;BME280;26317;44.894;20.286;2023-12-20T01:12:12;100729.56;;;4.65;94.27
40612;BME280;26317;44.894;20.286;2023-12-20T01:14:47;100728.28;;;4.68;94.10
40612;BME280;26317;44.894;20.286;2023-12-20T01:17:33;100729.91;;;4.69;94.16
40612;BME280;26317;44.894;20.286;2023-12-20T01:20:11;100712.34;;;4.68;93.91
40612;BME280;26317;44.894;20.286;2023-12-20T01:22:54;100724.47;;;4.63;93.17
40612;BME280;26317;44.894;20.286;2023-12-20T01:25:32;100719.63;;;4.60;92.76
40612;BME280;26317;44.894;20.286;2023-12-20T01:28:15;100714.16;;;4.55;92.69
40612;BME280;26317;44.894;20.286;2023-12-20T01:31:09;100714.16;;;4.55;92.06
40612;BME280;26317;44.894;20.286;2023-12-20T01:33:47;100717.50;;;4.51;92.04
40612;BME280;26317;44.894;20.286;2023-12-20T01:36:25;100717.97;;;4.48;91.53
40612;BME280;26317;44.894;20.286;2023-12-20T01:39:04;100719.44;;;4.44;90.99
40612;BME280;26317;44.894;20.286;2023-12-20T01:41:58;100708.25;;;4.42;90.79
40612;BME280;26317;44.894;20.286;2023-12-20T01:44:49;100699.34;;;4.36;90.73
40612;BME280;26317;44.894;20.286;2023-12-20T01:47:28;100697.13;;;4.33;90.70
40612;BME280;26317;44.894;20.286;2023-12-20T01:50:16;100689.59;;;4.30;90.44
40612;BME280;26317;44.894;20.286;2023-12-20T01:53:03;100684.75;;;4.27;90.12
40612;BME280;26317;44.894;20.286;2023-12-20T01:55:52;100683.84;;;4.22;89.99
40612;BME280;26317;44.894;20.286;2023-12-20T01:58:33;100682.88;;;4.16;90.06
40612;BME280;26317;44.894;20.286;2023-12-20T02:01:26;100682.53;;;4.12;90.29
40612;BME280;26317;44.894;20.286;2023-12-20T02:04:09;100674.19;;;4.09;90.28
40612;BME280;26317;44.894;20.286;2023-12-20T02:06:52;100670.94;;;4.07;90.90
40612;BME280;26317;44.894;20.286;2023-12-20T02:09:30;100669.56;;;4.04;90.84
40612;BME280;26317;44.894;20.286;2023-12-20T02:12:09;100656.97;;;4.00;90.31
40612;BME280;26317;44.894;20.286;2023-12-20T02:14:44;100646.06;;;3.90;90.76
40612;BME280;26317;44.894;20.286;2023-12-20T02:17:26;100632.22;;;3.88;92.37
40612;BME280;26317;44.894;20.286;2023-12-20T02:20:01;100624.59;;;3.80;92.62
40612;BME280;26317;44.894;20.286;2023-12-20T02:22:56;100634.28;;;3.86;92.70
40612;BME280;26317;44.894;20.286;2023-12-20T02:25:36;100621.63;;;3.88;93.01
40612;BME280;26317;44.894;20.286;2023-12-20T02:28:17;100624.28;;;3.88;93.35
40612;BME280;26317;44.894;20.286;2023-12-20T02:30:57;100617.13;;;3.88;93.36
40612;BME280;26317;44.894;20.286;2023-12-20T02:33:33;100615.25;;;3.89;93.07
40612;BME280;26317;44.894;20.286;2023-12-20T02:36:11;100609.84;;;3.84;92.88
40612;BME280;26317;44.894;20.286;2023-12-20T02:39:00;100610.75;;;3.89;92.53
40612;BME280;26317;44.894;20.286;2023-12-20T02:41:45;100605.69;;;3.88;92.30
40612;BME280;26317;44.894;20.286;2023-12-20T02:44:19;100611.00;;;3.88;92.13
40612;BME280;26317;44.894;20.286;2023-12-20T02:47:00;100606.13;;;3.85;92.11
40612;BME280;26317;44.894;20.286;2023-12-20T02:49:50;100591.84;;;3.86;92.01
40612;BME280;26317;44.894;20.286;2023-12-20T02:52:24;100594.69;;;3.84;92.25
40612;BME280;26317;44.894;20.286;2023-12-20T02:55:10;100595.50;;;3.85;92.01
40612;BME280;26317;44.894;20.286;2023-12-20T02:57:48;100596.78;;;3.82;91.86
40612;BME280;26317;44.894;20.286;2023-12-20T03:00:19;100590.88;;;3.80;91.84
40612;BME280;26317;44.894;20.286;2023-12-20T03:03:09;100586.28;;;3.76;91.58
40612;BME280;26317;44.894;20.286;2023-12-20T03:05:48;100578.59;;;3.67;91.22
40612;BME280;26317;44.894;20.286;2023-12-20T03:08:23;100587.50;;;3.73;91.32
40612;BME280;26317;44.894;20.286;2023-12-20T03:11:09;100578.19;;;3.70;91.39
40612;BME280;26317;44.894;20.286;2023-12-20T03:13:50;100583.91;;;3.67;91.06
40612;BME280;26317;44.894;20.286;2023-12-20T03:16:31;100577.06;;;3.60;91.00
40612;BME280;26317;44.894;20.286;2023-12-20T03:19:09;100576.66;;;3.63;90.82
40612;BME280;26317;44.894;20.286;2023-12-20T03:21:45;100579.72;;;3.60;91.14
40612;BME280;26317;44.894;20.286;2023-12-20T03:24:19;100579.16;;;3.58;91.54
40612;BME280;26317;44.894;20.286;2023-12-20T03:27:02;100579.38;;;3.56;91.63
40612;BME280;26317;44.894;20.286;2023-12-20T03:29:48;100573.91;;;3.51;90.93
40612;BME280;26317;44.894;20.286;2023-12-20T03:32:26;100569.53;;;3.45;91.01
40612;BME280;26317;44.894;20.286;2023-12-20T03:35:10;100562.59;;;3.44;91.08
40612;BME280;26317;44.894;20.286;2023-12-20T03:38:01;100558.19;;;3.38;90.76
40612;BME280;26317;44.894;20.286;2023-12-20T03:40:43;100552.50;;;3.35;91.00
40612;BME280;26317;44.894;20.286;2023-12-20T03:43:41;100552.75;;;3.33;91.04
40612;BME280;26317;44.894;20.286;2023-12-20T03:46:19;100546.84;;;3.31;90.96
40612;BME280;26317;44.894;20.286;2023-12-20T03:48:53;100540.38;;;3.27;91.05
40612;BME280;26317;44.894;20.286;2023-12-20T03:51:32;100544.44;;;3.30;91.21
40612;BME280;26317;44.894;20.286;2023-12-20T03:54:13;100545.69;;;3.27;91.11
40612;BME280;26317;44.894;20.286;2023-12-20T03:56:52;100540.03;;;3.23;91.09
40612;BME280;26317;44.894;20.286;2023-12-20T03:59:40;100526.16;;;3.21;90.90
40612;BME280;26317;44.894;20.286;2023-12-20T04:02:18;100530.69;;;3.21;91.09
40612;BME280;26317;44.894;20.286;2023-12-20T04:04:57;100521.56;;;3.17;90.61
40612;BME280;26317;44.894;20.286;2023-12-20T04:07:41;100527.88;;;3.16;90.70
40612;BME280;26317;44.894;20.286;2023-12-20T04:10:29;100525.09;;;3.11;90.93
40612;BME280;26317;44.894;20.286;2023-12-20T04:13:15;100523.81;;;3.13;91.49
40612;BME280;26317;44.894;20.286;2023-12-20T04:16:04;100513.31;;;3.07;91.56
40612;BME280;26317;44.894;20.286;2023-12-20T04:18:40;100519.56;;;3.12;91.75
40612;BME280;26317;44.894;20.286;2023-12-20T04:21:33;100513.69;;;3.10;91.46
40612;BME280;26317;44.894;20.286;2023-12-20T04:24:10;100504.69;;;3.11;91.60
40612;BME280;26317;44.894;20.286;2023-12-20T04:26:43;100501.25;;;3.11;91.71
40612;BME280;26317;44.894;20.286;2023-12-20T04:29:27;100501.59;;;3.14;92.75
40612;BME280;26317;44.894;20.286;2023-12-20T04:32:10;100499.75;;;3.15;93.15
40612;BME280;26317;44.894;20.286;2023-12-20T04:34:48;100488.72;;;3.18;93.02
40612;BME280;26317;44.894;20.286;2023-12-20T04:37:23;100495.44;;;3.20;92.87
40612;BME280;26317;44.894;20.286;2023-12-20T04:40:02;100475.25;;;3.19;92.20
40612;BME280;26317;44.894;20.286;2023-12-20T04:42:36;100484.00;;;3.20;91.96
40612;BME280;26317;44.894;20.286;2023-12-20T04:45:17;100481.81;;;3.17;92.03
40612;BME280;26317;44.894;20.286;2023-12-20T04:47:58;100479.38;;;3.15;91.99
40612;BME280;26317;44.894;20.286;2023-12-20T04:50:57;100486.06;;;3.18;92.01
40612;BME280;26317;44.894;20.286;2023-12-20T04:53:35;100479.16;;;3.17;91.75
40612;BME280;26317;44.894;20.286;2023-12-20T04:56:12;100481.81;;;3.17;91.98
40612;BME280;26317;44.894;20.286;2023-12-20T04:58:47;100484.47;;;3.17;91.91
40612;BME280;26317;44.894;20.286;2023-12-20T05:01:24;100479.16;;;3.17;91.64
40612;BME280;26317;44.894;20.286;2023-12-20T05:04:19;100433.28;;;2.87;91.52
40612;BME280;26317;44.894;20.286;2023-12-20T05:06:51;100479.16;;;3.17;91.39
40612;BME280;26317;44.894;20.286;2023-12-20T05:09:27;100479.38;;;3.15;90.97
40612;BME280;26317;44.894;20.286;2023-12-20T05:12:00;100477.75;;;3.14;90.84
40612;BME280;26317;44.894;20.286;2023-12-20T05:14:36;100476.13;;;3.13;90.81
40612;BME280;26317;44.894;20.286;2023-12-20T05:17:08;100476.38;;;3.12;90.89
40612;BME280;26317;44.894;20.286;2023-12-20T05:19:56;100475.19;;;3.08;91.13
40612;BME280;26317;44.894;20.286;2023-12-20T05:22:31;100475.78;;;3.10;91.23
40612;BME280;26317;44.894;20.286;2023-12-20T05:25:19;100470.94;;;3.07;91.25
40612;BME280;26317;44.894;20.286;2023-12-20T05:27:58;100472.56;;;3.08;91.22
40612;BME280;26317;44.894;20.286;2023-12-20T05:30:45;100481.31;;;3.08;91.44
40612;BME280;26317;44.894;20.286;2023-12-20T05:33:24;100473.78;;;3.05;90.99
40612;BME280;26317;44.894;20.286;2023-12-20T05:36:07;100480.13;;;3.04;90.97
40612;BME280;26317;44.894;20.286;2023-12-20T05:38:57;100436.69;;;2.75;90.64
40612;BME280;26317;44.894;20.286;2023-12-20T05:41:32;100470.63;;;2.97;90.64
40612;BME280;26317;44.894;20.286;2023-12-20T05:44:18;100464.97;;;2.93;89.98
40612;BME280;26317;44.894;20.286;2023-12-20T05:46:56;100459.31;;;2.90;89.99
40612;BME280;26317;44.894;20.286;2023-12-20T05:49:40;100463.78;;;2.89;89.99
40612;BME280;26317;44.894;20.286;2023-12-20T05:52:38;100452.03;;;2.85;90.05
40612;BME280;26317;44.894;20.286;2023-12-20T05:55:30;100451.81;;;2.87;90.20
40612;BME280;26317;44.894;20.286;2023-12-20T05:58:09;100445.00;;;2.79;90.25
40612;BME280;26317;44.894;20.286;2023-12-20T06:00:46;100441.06;;;2.82;91.03
40612;BME280;26317;44.894;20.286;2023-12-20T06:03:31;100452.03;;;2.85;92.08
40612;BME280;26317;44.894;20.286;2023-12-20T06:06:11;100450.78;;;2.88;92.24
40612;BME280;26317;44.894;20.286;2023-12-20T06:08:54;100455.03;;;2.89;92.37
40612;BME280;26317;44.894;20.286;2023-12-20T06:11:38;100440.19;;;2.88;92.70
40612;BME280;26317;44.894;20.286;2023-12-20T06:14:20;100450.69;;;2.94;93.03
40612;BME280;26317;44.894;20.286;2023-12-20T06:16:58;100453.13;;;2.96;93.20
40612;BME280;26317;44.894;20.286;2023-12-20T06:19:35;100456.72;;;3.01;93.68
40612;BME280;26317;44.894;20.286;2023-12-20T06:22:18;100456.50;;;3.03;93.51
40612;BME280;26317;44.894;20.286;2023-12-20T06:25:00;100449.59;;;3.02;93.13
40612;BME280;26317;44.894;20.286;2023-12-20T06:27:45;100452.59;;;3.05;93.38
40612;BME280;26317;44.894;20.286;2023-12-20T06:30:27;100445.31;;;3.01;93.49
40612;BME280;26317;44.894;20.286;2023-12-20T06:33:07;100441.19;;;3.05;93.68
40612;BME280;26317;44.894;20.286;2023-12-20T06:35:47;100447.06;;;3.07;94.28
40612;BME280;26317;44.894;20.286;2023-12-20T06:38:23;100446.06;;;3.08;93.88
40612;BME280;26317;44.894;20.286;2023-12-20T06:41:10;100444.66;;;3.05;93.74
40612;BME280;26317;44.894;20.286;2023-12-20T06:43:53;100451.34;;;3.08;93.95
40612;BME280;26317;44.894;20.286;2023-12-20T06:46:48;100447.69;;;3.09;94.02
40612;BME280;26317;44.894;20.286;2023-12-20T06:49:23;100450.69;;;3.12;94.34
40612;BME280;26317;44.894;20.286;2023-12-20T06:52:07;100445.59;;;3.11;94.67
40612;BME280;26317;44.894;20.286;2023-12-20T06:54:49;100445.97;;;3.14;94.47
40612;BME280;26317;44.894;20.286;2023-12-20T06:57:36;100449.63;;;3.13;95.05
40612;BME280;26317;44.894;20.286;2023-12-20T07:00:20;100440.44;;;3.16;94.96
40612;BME280;26317;44.894;20.286;2023-12-20T07:02:55;100440.19;;;3.17;94.90
40612;BME280;26317;44.894;20.286;2023-12-20T07:05:38;100438.97;;;3.20;94.93
40612;BME280;26317;44.894;20.286;2023-12-20T07:08:15;100431.56;;;3.22;94.82
40612;BME280;26317;44.894;20.286;2023-12-20T07:10:55;100414.97;;;3.15;94.44
40612;BME280;26317;44.894;20.286;2023-12-20T07:13:48;100431.47;;;3.17;93.85
40612;BME280;26317;44.894;20.286;2023-12-20T07:16:28;100426.59;;;3.14;94.38
40612;BME280;26317;44.894;20.286;2023-12-20T07:19:09;100429.50;;;3.12;94.71
40612;BME280;26317;44.894;20.286;2023-12-20T07:21:57;100426.03;;;3.12;94.20
40612;BME280;26317;44.894;20.286;2023-12-20T07:24:34;100412.84;;;3.05;94.75
40612;BME280;26317;44.894;20.286;2023-12-20T07:27:13;100422.78;;;3.10;95.23
40612;BME280;26317;44.894;20.286;2023-12-20T07:30:01;100427.06;;;3.11;95.06
40612;BME280;26317;44.894;20.286;2023-12-20T07:32:40;100427.72;;;3.06;94.96
40612;BME280;26317;44.894;20.286;2023-12-20T07:35:18;100436.69;;;3.05;95.07
40612;BME280;26317;44.894;20.286;2023-12-20T07:37:56;100436.47;;;3.07;94.96
40612;BME280;26317;44.894;20.286;2023-12-20T07:40:42;100430.69;;;2.98;94.64
40612;BME280;26317;44.894;20.286;2023-12-20T07:43:16;100439.22;;;3.00;94.89
40612;BME280;26317;44.894;20.286;2023-12-20T07:45:55;100431.72;;;2.97;95.45
40612;BME280;26317;44.894;20.286;2023-12-20T07:48:36;100432.38;;;2.93;96.19
40612;BME280;26317;44.894;20.286;2023-12-20T07:51:14;100427.06;;;2.93;96.69
40612;BME280;26317;44.894;20.286;2023-12-20T07:53:54;100428.50;;;2.95;97.40
40612;BME280;26317;44.894;20.286;2023-12-20T07:56:27;100432.81;;;2.90;97.56
40612;BME280;26317;44.894;20.286;2023-12-20T07:59:00;100434.91;;;2.88;98.65
40612;BME280;26317;44.894;20.286;2023-12-20T08:01:51;100427.63;;;2.83;98.36
40612;BME280;26317;44.894;20.286;2023-12-20T08:04:28;100430.13;;;2.78;97.86
40612;BME280;26317;44.894;20.286;2023-12-20T08:07:08;100428.50;;;2.77;97.96
40612;BME280;26317;44.894;20.286;2023-12-20T08:09:48;100425.34;;;2.68;98.11
40612;BME280;26317;44.894;20.286;2023-12-20T08:12:24;100429.31;;;2.77;98.53
40612;BME280;26317;44.894;20.286;2023-12-20T08:15:05;100420.59;;;2.89;99.04
40612;BME280;26317;44.894;20.286;2023-12-20T08:17:55;100417.22;;;3.00;98.67
40612;BME280;26317;44.894;20.286;2023-12-20T08:20:34;100417.25;;;3.11;98.22
40612;BME280;26317;44.894;20.286;2023-12-20T08:23:21;100414.66;;;3.23;98.26
40612;BME280;26317;44.894;20.286;2023-12-20T08:26:03;100414.31;;;3.31;98.36
40612;BME280;26317;44.894;20.286;2023-12-20T08:28:41;100374.19;;;3.16;97.63
40612;BME280;26317;44.894;20.286;2023-12-20T08:31:20;100418.41;;;3.45;96.98
40612;BME280;26317;44.894;20.286;2023-12-20T08:34:00;100410.81;;;3.49;96.53
40612;BME280;26317;44.894;20.286;2023-12-20T08:36:41;100416.81;;;3.56;95.76
40612;BME280;26317;44.894;20.286;2023-12-20T08:39:21;100411.16;;;3.52;95.49
40612;BME280;26317;44.894;20.286;2023-12-20T08:41:59;100406.78;;;3.46;94.98
40612;BME280;26317;44.894;20.286;2023-12-20T08:44:51;100423.13;;;3.55;95.12
40612;BME280;26317;44.894;20.286;2023-12-20T08:47:31;100425.22;;;3.53;95.76
40612;BME280;26317;44.894;20.286;2023-12-20T08:50:24;100418.44;;;3.57;96.38
40612;BME280;26317;44.894;20.286;2023-12-20T08:53:15;100412.25;;;3.63;96.06
40612;BME280;26317;44.894;20.286;2023-12-20T08:55:48;100414.44;;;3.66;96.39
40612;BME280;26317;44.894;20.286;2023-12-20T08:58:34;100412.13;;;3.69;96.31
40612;BME280;26317;44.894;20.286;2023-12-20T09:01:13;100417.31;;;3.76;95.87
40612;BME280;26317;44.894;20.286;2023-12-20T09:03:50;100424.13;;;3.84;95.83
40612;BME280;26317;44.894;20.286;2023-12-20T09:06:32;100416.75;;;3.86;95.30
40612;BME280;26317;44.894;20.286;2023-12-20T09:09:11;100410.19;;;3.88;95.12
40612;BME280;26317;44.894;20.286;2023-12-20T09:11:43;100413.75;;;3.94;95.25
40612;BME280;26317;44.894;20.286;2023-12-20T09:14:24;100404.41;;;3.91;95.54
40612;BME280;26317;44.894;20.286;2023-12-20T09:17:09;100415.72;;;3.98;95.34
40612;BME280;26317;44.894;20.286;2023-12-20T09:19:45;100408.09;;;4.02;94.99
40612;BME280;26317;44.894;20.286;2023-12-20T09:22:37;100405.09;;;3.98;95.07
40612;BME280;26317;44.894;20.286;2023-12-20T09:25:17;100401.75;;;4.03;95.59
40612;BME280;26317;44.894;20.286;2023-12-20T09:27:56;100402.91;;;4.07;95.91
40612;BME280;26317;44.894;20.286;2023-12-20T09:30:51;100403.13;;;4.05;94.91
40612;BME280;26317;44.894;20.286;2023-12-20T09:33:29;100382.28;;;4.09;95.38
40612;BME280;26317;44.894;20.286;2023-12-20T09:36:08;100383.66;;;4.11;95.45
40612;BME280;26317;44.894;20.286;2023-12-20T09:38:49;100382.69;;;4.17;95.95
40612;BME280;26317;44.894;20.286;2023-12-20T09:41:26;100379.34;;;4.22;95.85
40612;BME280;26317;44.894;20.286;2023-12-20T09:44:15;100377.28;;;4.24;96.21
40612;BME280;26317;44.894;20.286;2023-12-20T09:46:56;100375.19;;;4.26;95.68
40612;BME280;26317;44.894;20.286;2023-12-20T09:49:41;100364.13;;;4.29;96.19
40612;BME280;26317;44.894;20.286;2023-12-20T09:52:27;100349.94;;;4.24;96.64
40612;BME280;26317;44.894;20.286;2023-12-20T09:55:17;100361.34;;;4.36;97.64
40612;BME280;26317;44.894;20.286;2023-12-20T09:57:56;100357.44;;;4.38;98.10
40612;BME280;26317;44.894;20.286;2023-12-20T10:00:31;100364.44;;;4.44;98.36
40612;BME280;26317;44.894;20.286;2023-12-20T10:03:06;100353.59;;;4.46;99.33
40612;BME280;26317;44.894;20.286;2023-12-20T10:05:55;100374.13;;;4.50;98.91
40612;BME280;26317;44.894;20.286;2023-12-20T10:08:36;100377.47;;;4.57;99.50
40612;BME280;26317;44.894;20.286;2023-12-20T10:11:32;100356.88;;;4.64;100.00
40612;BME280;26317;44.894;20.286;2023-12-20T10:14:12;100361.09;;;4.77;100.00
40612;BME280;26317;44.894;20.286;2023-12-20T10:16:44;100351.94;;;4.85;100.00
40612;BME280;26317;44.894;20.286;2023-12-20T10:19:19;100353.19;;;4.94;100.00
40612;BME280;26317;44.894;20.286;2023-12-20T10:21:57;100350.72;;;5.04;100.00
40612;BME280;26317;44.894;20.286;2023-12-20T10:24:34;100347.34;;;5.08;99.78
40612;BME280;26317;44.894;20.286;2023-12-20T10:27:23;100350.06;;;5.14;99.96
40612;BME280;26317;44.894;20.286;2023-12-20T10:30:17;100350.47;;;5.22;100.00
40612;BME280;26317;44.894;20.286;2023-12-20T10:32:58;100353.16;;;5.22;100.00
40612;BME280;26317;44.894;20.286;2023-12-20T10:35:34;100339.44;;;5.30;100.00
40612;BME280;26317;44.894;20.286;2023-12-20T10:38:16;100338.59;;;5.41;100.00
40612;BME280;26317;44.894;20.286;2023-12-20T10:40:56;100346.16;;;5.49;100.00
40612;BME280;26317;44.894;20.286;2023-12-20T10:43:37;100343.19;;;5.46;100.00
40612;BME280;26317;44.894;20.286;2023-12-20T10:46:18;100335.84;;;5.53;100.00
40612;BME280;26317;44.894;20.286;2023-12-20T10:48:56;100327.69;;;5.60;100.00
40612;BME280;26317;44.894;20.286;2023-12-20T10:51:41;100326.25;;;5.69;100.00
40612;BME280;26317;44.894;20.286;2023-12-20T10:54:18;100321.06;;;5.79;100.00
40612;BME280;26317;44.894;20.286;2023-12-20T10:57:19;100305.41;;;5.82;100.00
40612;BME280;26317;44.894;20.286;2023-12-20T11:00:10;100309.44;;;5.85;100.00
40612;BME280;26317;44.894;20.286;2023-12-20T11:02:55;100295.44;;;5.89;100.00
40612;BME280;26317;44.894;20.286;2023-12-20T11:05:38;100292.84;;;5.94;100.00
40612;BME280;26317;44.894;20.286;2023-12-20T11:08:26;100292.69;;;6.01;100.00
40612;BME280;26317;44.894;20.286;2023-12-20T11:11:09;100292.19;;;6.04;100.00
40612;BME280;26317;44.894;20.286;2023-12-20T11:13:58;100285.03;;;6.10;100.00
40612;BME280;26317;44.894;20.286;2023-12-20T11:16:42;100275.63;;;6.02;100.00
40612;BME280;26317;44.894;20.286;2023-12-20T11:19:26;100271.44;;;6.06;100.00
40612;BME280;26317;44.894;20.286;2023-12-20T11:22:04;100275.50;;;6.14;100.00
40612;BME280;26317;44.894;20.286;2023-12-20T11:24:52;100284.72;;;6.06;100.00
40612;BME280;26317;44.894;20.286;2023-12-20T11:27:30;100290.19;;;6.16;100.00
40612;BME280;26317;44.894;20.286;2023-12-20T11:30:14;100293.00;;;6.05;100.00
40612;BME280;26317;44.894;20.286;2023-12-20T11:32:57;100306.34;;;6.10;100.00
40612;BME280;26317;44.894;20.286;2023-12-20T11:35:35;100307.16;;;6.10;100.00
40612;BME280;26317;44.894;20.286;2023-12-20T11:38:21;100307.16;;;6.10;100.00
40612;BME280;26317;44.894;20.286;2023-12-20T11:41:00;100308.16;;;6.04;100.00
40612;BME280;26317;44.894;20.286;2023-12-20T11:43:47;100307.66;;;6.07;100.00
40612;BME280;26317;44.894;20.286;2023-12-20T11:46:22;100304.06;;;6.18;100.00
40612;BME280;26317;44.894;20.286;2023-12-20T11:49:16;100303.16;;;6.29;100.00
40612;BME280;26317;44.894;20.286;2023-12-20T11:51:50;100274.09;;;6.28;100.00
40612;BME280;26317;44.894;20.286;2023-12-20T11:54:25;100298.88;;;6.50;100.00
40612;BME280;26317;44.894;20.286;2023-12-20T11:57:14;100290.13;;;6.55;100.00
40612;BME280;26317;44.894;20.286;2023-12-20T11:59:54;100294.50;;;6.66;100.00
40612;BME280;26317;44.894;20.286;2023-12-20T12:02:59;100298.88;;;6.77;99.05
40612;BME280;26317;44.894;20.286;2023-12-20T12:05:44;100301.28;;;6.78;98.11
40612;BME280;26317;44.894;20.286;2023-12-20T12:08:22;100297.22;;;6.71;97.97
40612;BME280;26317;44.894;20.286;2023-12-20T12:11:05;100298.06;;;6.76;98.20
40612;BME280;26317;44.894;20.286;2023-12-20T12:13:40;100300.44;;;6.73;98.28
40612;BME280;26317;44.894;20.286;2023-12-20T12:16:22;100303.38;;;6.71;97.76
40612;BME280;26317;44.894;20.286;2023-12-20T12:19:03;100304.94;;;6.72;97.91
40612;BME280;26317;44.894;20.286;2023-12-20T12:21:55;100300.81;;;6.60;98.50
40612;BME280;26317;44.894;20.286;2023-12-20T12:24:47;100299.66;;;6.51;99.07
40612;BME280;26317;44.894;20.286;2023-12-20T12:27:27;100292.06;;;6.37;99.84
40612;BME280;26317;44.894;20.286;2023-12-20T12:30:04;100293.34;;;6.35;100.00
40612;BME280;26317;44.894;20.286;2023-12-20T12:32:49;100294.16;;;6.35;100.00
40612;BME280;26317;44.894;20.286;2023-12-20T12:35:29;100286.59;;;6.27;100.00
40612;BME280;26317;44.894;20.286;2023-12-20T12:38:22;100285.78;;;6.27;100.00
40612;BME280;26317;44.894;20.286;2023-12-20T12:40:55;100277.44;;;6.18;100.00
40612;BME280;26317;44.894;20.286;2023-12-20T12:43:38;100315.66;;;6.29;100.00
40612;BME280;26317;44.894;20.286;2023-12-20T12:46:16;100309.22;;;6.25;100.00
40612;BME280;26317;44.894;20.286;2023-12-20T12:48:52;100306.19;;;6.16;100.00
40612;BME280;26317;44.894;20.286;2023-12-20T12:51:51;100303.75;;;6.15;100.00
40612;BME280;26317;44.894;20.286;2023-12-20T12:54:40;100298.19;;;6.16;100.00
40612;BME280;26317;44.894;20.286;2023-12-20T12:57:16;100293.75;;;6.22;100.00
40612;BME280;26317;44.894;20.286;2023-12-20T12:59:54;100286.06;;;6.25;100.00
40612;BME280;26317;44.894;20.286;2023-12-20T13:02:29;100290.44;;;6.36;100.00
40612;BME280;26317;44.894;20.286;2023-12-20T13:05:09;100285.63;;;6.33;100.00
40612;BME280;26317;44.894;20.286;2023-12-20T13:07:47;100267.50;;;6.35;99.48
40612;BME280;26317;44.894;20.286;2023-12-20T13:10:52;100271.06;;;6.41;98.75
40612;BME280;26317;44.894;20.286;2023-12-20T13:13:32;100284.59;;;6.39;98.81
40612;BME280;26317;44.894;20.286;2023-12-20T13:16:15;100291.69;;;6.29;99.45
40612;BME280;26317;44.894;20.286;2023-12-20T13:19:01;100290.94;;;6.33;100.00
40612;BME280;26317;44.894;20.286;2023-12-20T13:21:40;100298.88;;;6.28;100.00
40612;BME280;26317;44.894;20.286;2023-12-20T13:24:13;100299.41;;;6.30;100.00
40612;BME280;26317;44.894;20.286;2023-12-20T13:26:57;100292.38;;;6.19;100.00
40612;BME280;26317;44.894;20.286;2023-12-20T13:29:32;100309.88;;;6.15;100.00
40612;BME280;26317;44.894;20.286;2023-12-20T13:32:12;100307.34;;;6.04;100.00
40612;BME280;26317;44.894;20.286;2023-12-20T13:34:48;100303.25;;;5.96;100.00
40612;BME280;26317;44.894;20.286;2023-12-20T13:37:30;100309.44;;;6.01;100.00
40612;BME280;26317;44.894;20.286;2023-12-20T13:40:11;100309.44;;;6.01;100.00
40612;BME280;26317;44.894;20.286;2023-12-20T13:42:58;100295.16;;;6.08;100.00
40612;BME280;26317;44.894;20.286;2023-12-20T13:45:49;100285.81;;;6.05;100.00
40612;BME280;26317;44.894;20.286;2023-12-20T13:48:30;100306.47;;;6.20;100.00
40612;BME280;26317;44.894;20.286;2023-12-20T13:51:05;100307.84;;;6.22;100.00
40612;BME280;26317;44.894;20.286;2023-12-20T13:53:39;100307.91;;;6.27;100.00
40612;BME280;26317;44.894;20.286;2023-12-20T13:56:13;100300.97;;;6.26;100.00
40612;BME280;26317;44.894;20.286;2023-12-20T13:58:59;100308.94;;;6.26;100.00
40612;BME280;26317;44.894;20.286;2023-12-20T14:01:36;100313.72;;;6.24;100.00
40612;BME280;26317;44.894;20.286;2023-12-20T14:04:12;100314.78;;;6.23;100.00